Time;durP1;ratioP1;P1;durP2;ratioP2;P2;SDS_P1;SDS_P2;PMS_P1;PMS_P2;Temp;Humidity;BMP_temperature;BMP_pressure;BME280_temperature;BME280_humidity;BME280_pressure;Samples;Min_cycle;Max_cycle;Signal;HPM_P1;HPM_P2
2022/07/10 00:01:50;;;;;;;6.68;4.30;;;;;;;14.96;70.38;94522.13;4822757;29;20054;-66
2022/07/10 00:04:18;;;;;;;5.90;4.27;;;;;;;15.03;70.16;94518.44;4839553;29;20046;-66
2022/07/10 00:06:46;;;;;;;7.05;4.13;;;;;;;15.03;69.80;94514.88;4823808;29;20054;-66
2022/07/10 00:09:14;;;;;;;6.18;4.07;;;;;;;14.56;71.28;94518.66;4838369;29;20046;-65
2022/07/10 00:11:41;;;;;;;7.03;4.20;;;;;;;14.41;71.88;94509.84;4828173;29;20057;-65
2022/07/10 00:14:08;;;;;;;5.78;4.20;;;;;;;14.47;71.79;94521.19;4838948;29;20050;-66
2022/07/10 00:16:36;;;;;;;6.23;4.47;;;;;;;14.49;71.79;94504.97;4839469;29;20280;-66
2022/07/10 00:19:03;;;;;;;6.82;4.22;;;;;;;14.47;71.54;94515.66;4838877;29;20428;-66
2022/07/10 00:21:29;;;;;;;6.18;4.13;;;;;;;14.56;71.17;94518.66;4839485;29;20522;-65
2022/07/10 00:23:56;;;;;;;6.80;4.50;;;;;;;14.52;71.62;94513.16;4839025;29;20076;-69
2022/07/10 00:26:23;;;;;;;6.25;4.45;;;;;;;14.59;71.37;94520.56;4822728;29;20050;-66
2022/07/10 00:28:49;;;;;;;6.67;4.20;;;;;;;14.64;71.16;94511.00;4838837;29;20054;-65
2022/07/10 00:31:16;;;;;;;8.10;4.10;;;;;;;14.63;70.88;94509.41;4839564;29;20484;-65
2022/07/10 00:33:43;;;;;;;5.15;4.03;;;;;;;14.61;70.76;94506.31;4836415;29;20065;-65
2022/07/10 00:36:10;;;;;;;6.53;4.20;;;;;;;14.54;71.32;94513.50;4839013;29;20046;-67
2022/07/10 00:38:37;;;;;;;7.32;4.20;;;;;;;14.52;71.61;94501.34;4839209;29;20050;-66
2022/07/10 00:41:04;;;;;;;7.93;4.50;;;;;;;14.23;72.65;94507.47;4824333;29;20042;-67
2022/07/10 00:43:53;;;;;;;6.82;4.40;;;;;;;14.31;72.12;94505.34;4839329;29;20054;-65
2022/07/10 00:46:20;;;;;;;7.70;4.63;;;;;;;14.30;72.07;94501.00;4838438;29;21759;-67
2022/07/10 00:48:48;;;;;;;6.85;5.00;;;;;;;14.25;72.50;94501.53;4839401;29;20064;-65
2022/07/10 00:51:17;;;;;;;7.32;4.80;;;;;;;14.21;72.30;94509.88;4838566;29;20932;-65
2022/07/10 00:53:48;;;;;;;9.93;4.43;;;;;;;14.23;72.47;94501.94;4812053;29;20169;-65
2022/07/10 00:56:17;;;;;;;8.27;4.63;;;;;;;14.23;72.56;94501.16;4810559;29;20929;-66
2022/07/10 00:58:45;;;;;;;6.88;4.68;;;;;;;14.26;72.18;94508.59;4828313;29;20058;-65
2022/07/10 01:01:12;;;;;;;7.50;4.55;;;;;;;14.25;72.52;94494.00;4832150;29;20072;-65
2022/07/10 01:03:40;;;;;;;7.43;4.78;;;;;;;13.99;73.20;94485.44;4832237;29;20122;-66
2022/07/10 01:06:07;;;;;;;7.07;4.40;;;;;;;13.93;73.68;94497.41;4838443;29;20098;-66
2022/07/10 01:08:34;;;;;;;6.65;4.53;;;;;;;13.79;73.84;94499.19;4839283;29;20068;-65
2022/07/10 01:11:01;;;;;;;6.38;4.40;;;;;;;13.69;74.01;94488.38;4825652;29;20499;-65
2022/07/10 01:13:29;;;;;;;7.05;4.68;;;;;;;13.81;73.95;94495.25;4839775;29;20460;-65
2022/07/10 01:15:57;;;;;;;6.80;4.72;;;;;;;13.85;73.78;94491.22;4842138;29;20428;-66
2022/07/10 01:18:25;;;;;;;7.07;4.57;;;;;;;13.89;73.83;94491.94;4842705;29;20073;-68
2022/07/10 01:20:54;;;;;;;6.65;4.50;;;;;;;13.89;73.87;94480.91;4842281;29;20057;-68
2022/07/10 01:23:21;;;;;;;9.60;4.72;;;;;;;13.94;73.57;94482.38;4842645;29;20050;-65
2022/07/10 01:25:49;;;;;;;6.53;4.60;;;;;;;13.94;74.02;94482.38;4842132;29;20057;-67
2022/07/10 01:28:17;;;;;;;7.30;4.97;;;;;;;13.91;74.20;94478.50;4828843;29;20914;-65
2022/07/10 01:30:44;;;;;;;6.57;4.67;;;;;;;13.94;74.20;94474.09;4842802;29;20049;-66
2022/07/10 01:33:10;;;;;;;8.25;5.28;;;;;;;13.90;74.52;94489.94;4842102;29;20046;-66
2022/07/10 01:35:38;;;;;;;7.45;5.25;;;;;;;13.92;75.70;94480.06;4842141;29;20064;-66
2022/07/10 01:38:06;;;;;;;8.40;5.63;;;;;;;14.03;76.25;94474.31;4841915;29;20050;-66
2022/07/10 01:40:33;;;;;;;9.38;5.95;;;;;;;14.03;76.13;94477.09;4842396;29;20116;-67
2022/07/10 01:42:59;;;;;;;8.57;6.20;;;;;;;14.06;76.73;94467.94;4842041;29;20046;-66
2022/07/10 01:45:26;;;;;;;8.65;6.30;;;;;;;13.97;77.18;94470.50;4842335;29;20062;-66
2022/07/10 01:47:53;;;;;;;9.07;6.63;;;;;;;14.02;77.20;94474.75;4796119;29;20452;-69
2022/07/10 01:50:20;;;;;;;9.02;6.35;;;;;;;13.97;77.22;94481.53;4842161;29;20049;-66
2022/07/10 01:52:46;;;;;;;10.23;6.57;;;;;;;13.86;78.10;94462.41;4828451;29;20054;-66
2022/07/10 01:55:13;;;;;;;9.53;6.63;;;;;;;13.89;78.01;94475.38;4806398;29;20412;-66
2022/07/10 01:57:40;;;;;;;8.57;6.78;;;;;;;13.86;78.26;94476.22;4823801;29;20054;-67
2022/07/10 02:00:07;;;;;;;9.15;6.75;;;;;;;13.87;78.52;94472.25;4840850;29;20392;-66
2022/07/10 02:02:34;;;;;;;8.93;6.65;;;;;;;13.87;78.18;94472.25;4827691;29;20395;-66
2022/07/10 02:05:01;;;;;;;11.02;7.05;;;;;;;13.74;79.40;94477.63;4841455;29;20117;-66
2022/07/10 02:07:28;;;;;;;9.70;7.10;;;;;;;13.73;79.60;94480.81;4841974;29;20072;-67
2022/07/10 02:09:54;;;;;;;11.77;6.95;;;;;;;13.61;80.28;94471.16;4833596;29;20058;-66
2022/07/10 02:12:21;;;;;;;11.15;7.50;;;;;;;13.55;80.94;94470.88;4837121;29;20042;-66
2022/07/10 02:14:48;;;;;;;12.50;7.65;;;;;;;13.53;81.13;94478.00;4841963;29;20053;-67
2022/07/10 02:17:16;;;;;;;10.85;7.30;;;;;;;13.45;81.49;94473.81;4840757;29;21453;-66
2022/07/10 02:19:42;;;;;;;11.60;7.40;;;;;;;13.42;81.30;94471.91;4841542;29;20571;-66
2022/07/10 02:22:09;;;;;;;9.32;6.97;;;;;;;13.52;80.90;94474.47;4841067;29;20048;-67
2022/07/10 02:24:36;;;;;;;10.25;7.50;;;;;;;13.42;81.61;94475.44;4841148;29;20495;-64
2022/07/10 02:27:03;;;;;;;10.32;7.57;;;;;;;13.32;82.48;94477.19;4834605;29;20046;-63
2022/07/10 02:29:30;;;;;;;11.93;7.55;;;;;;;13.22;83.21;94483.63;4834969;29;20065;-65
2022/07/10 02:31:57;;;;;;;10.57;7.40;;;;;;;13.29;82.77;94471.69;4840926;29;20046;-64
2022/07/10 02:34:23;;;;;;;9.60;7.25;;;;;;;13.23;82.75;94482.41;4832497;29;20129;-64
2022/07/10 02:36:50;;;;;;;9.68;6.93;;;;;;;13.27;83.08;94477.63;4838524;29;20045;-65
2022/07/10 02:39:18;;;;;;;10.15;7.25;;;;;;;13.19;83.82;94481.69;4841287;29;20053;-64
2022/07/10 02:41:45;;;;;;;11.60;7.40;;;;;;;13.27;83.37;94479.59;4841073;29;20056;-64
2022/07/10 02:44:12;;;;;;;8.87;6.87;;;;;;;13.34;82.85;94493.28;4840599;29;20046;-67
2022/07/10 02:46:39;;;;;;;10.63;7.32;;;;;;;13.26;83.39;94481.59;4840938;29;20046;-64
2022/07/10 02:49:05;;;;;;;9.55;7.40;;;;;;;13.13;84.11;94486.91;4840449;29;20097;-65
2022/07/10 02:51:32;;;;;;;10.38;7.00;;;;;;;13.25;83.75;94482.78;4824856;29;20054;-68
2022/07/10 02:53:59;;;;;;;10.75;7.15;;;;;;;13.23;83.75;94490.69;4840503;29;20526;-65
2022/07/10 02:56:26;;;;;;;9.00;7.17;;;;;;;13.22;83.67;94483.63;4840589;29;20050;-65
2022/07/10 02:58:53;;;;;;;11.05;7.85;;;;;;;13.15;83.67;94492.00;4823973;29;20105;-64
2022/07/10 03:01:19;;;;;;;10.50;7.55;;;;;;;13.10;83.98;94497.97;4818918;29;20054;-64
2022/07/10 03:03:46;;;;;;;12.18;7.63;;;;;;;12.85;85.40;94488.13;4833887;29;20503;-64
2022/07/10 03:06:14;;;;;;;12.07;7.65;;;;;;;12.80;85.65;94488.59;4808536;29;20412;-67
2022/07/10 03:08:41;;;;;;;10.60;7.83;;;;;;;12.87;85.08;94482.19;4840951;29;20118;-66
2022/07/10 03:11:08;;;;;;;13.70;7.88;;;;;;;12.77;85.31;94481.16;4840058;29;20057;-65
2022/07/10 03:13:35;;;;;;;11.40;7.50;;;;;;;12.89;84.99;94485.31;4840481;29;20050;-67
2022/07/10 03:16:02;;;;;;;10.60;7.80;;;;;;;12.99;84.12;94481.63;4840387;29;20050;-64
2022/07/10 03:18:29;;;;;;;12.15;7.82;;;;;;;13.09;83.29;94482.66;4840436;29;20058;-64
2022/07/10 03:20:56;;;;;;;11.93;7.80;;;;;;;12.99;83.47;94478.88;4840129;29;20065;-64
2022/07/10 03:23:23;;;;;;;9.85;6.88;;;;;;;13.10;83.02;94481.44;4840518;29;20049;-66
2022/07/10 03:25:50;;;;;;;11.20;7.70;;;;;;;13.02;83.06;94482.75;4839684;29;20392;-64
2022/07/10 03:28:18;;;;;;;10.27;7.45;;;;;;;13.00;83.21;94491.47;4840500;29;20046;-65
2022/07/10 03:30:44;;;;;;;10.27;7.63;;;;;;;12.89;83.68;94490.81;4840366;29;20054;-67
2022/07/10 03:33:11;;;;;;;11.07;8.00;;;;;;;12.91;83.92;94485.69;4840104;29;20046;-66
2022/07/10 03:35:38;;;;;;;9.13;6.95;;;;;;;12.86;84.11;94484.19;4790790;29;20054;-66
2022/07/10 03:38:04;;;;;;;10.38;7.25;;;;;;;12.73;85.20;94491.44;4804885;29;20050;-69
2022/07/10 03:40:31;;;;;;;10.57;7.40;;;;;;;12.84;84.52;94488.53;4824078;29;20535;-66
2022/07/10 03:42:58;;;;;;;11.80;7.80;;;;;;;12.83;84.58;94487.75;4828982;29;20050;-66
2022/07/10 03:45:25;;;;;;;10.47;7.30;;;;;;;12.89;84.21;94491.59;4827931;29;20525;-65
2022/07/10 03:47:51;;;;;;;13.82;7.10;;;;;;;12.88;84.30;94483.78;4839674;29;20050;-65
2022/07/10 03:50:18;;;;;;;11.27;7.45;;;;;;;12.99;83.35;94500.91;4839936;29;20405;-66
2022/07/10 03:52:46;;;;;;;9.95;6.95;;;;;;;13.05;83.39;94490.19;4830536;29;20057;-68
2022/07/10 03:55:13;;;;;;;9.73;7.35;;;;;;;13.10;82.61;94484.19;4836331;29;20488;-68
2022/07/10 03:57:55;;;;;;;13.47;7.30;;;;;;;13.11;82.45;94486.53;4840032;29;20519;-66
2022/07/10 04:00:31;;;;;;;9.45;7.10;;;;;;;13.23;81.99;94489.91;4838730;29;20753;-66
2022/07/10 04:03:01;;;;;;;10.43;7.10;;;;;;;13.23;81.43;94485.19;4839504;29;20516;-66
2022/07/10 04:05:29;;;;;;;10.10;7.07;;;;;;;13.23;80.77;94492.66;4839713;29;20412;-66
2022/07/10 04:07:56;;;;;;;12.88;9.57;;;;;;;13.01;81.17;94490.25;4839355;29;20392;-64
2022/07/10 04:10:25;;;;;;;13.47;9.97;;;;;;;12.78;82.26;94491.75;4827098;29;20443;-64
2022/07/10 04:12:52;;;;;;;14.52;9.35;;;;;;;12.77;82.38;94490.19;4823135;29;20101;-65
2022/07/10 04:15:20;;;;;;;14.55;10.38;;;;;;;12.83;82.52;94482.25;4839696;29;20052;-66
2022/07/10 04:17:47;;;;;;;14.90;10.95;;;;;;;12.82;82.50;94480.69;4839463;29;20157;-66
2022/07/10 04:20:16;;;;;;;14.38;10.07;;;;;;;12.84;82.76;94475.56;4839028;29;20118;-64
2022/07/10 04:22:44;;;;;;;12.53;7.70;;;;;;;12.89;82.11;94477.06;4839607;29;20069;-64
2022/07/10 04:25:11;;;;;;;8.70;7.15;;;;;;;13.09;81.49;94480.66;4838838;29;20069;-64
2022/07/10 04:27:38;;;;;;;9.10;7.00;;;;;;;13.30;80.86;94471.31;4839645;29;20514;-64
2022/07/10 04:30:06;;;;;;;9.70;7.28;;;;;;;13.41;79.88;94475.88;4838979;29;20086;-64
2022/07/10 04:32:33;;;;;;;12.93;7.35;;;;;;;13.52;78.85;94473.69;4839656;29;20050;-64
2022/07/10 04:35:00;;;;;;;9.33;7.10;;;;;;;13.71;78.61;94474.94;4815775;29;20047;-64
2022/07/10 04:37:29;;;;;;;9.45;7.28;;;;;;;13.48;79.25;94478.47;4803016;29;20069;-65
2022/07/10 04:39:55;;;;;;;10.38;7.28;;;;;;;13.51;79.34;94472.16;4821682;29;20050;-64
2022/07/10 04:42:25;;;;;;;10.73;7.10;;;;;;;13.57;79.15;94479.50;4821151;29;20058;-64
2022/07/10 04:44:53;;;;;;;9.40;7.30;;;;;;;13.68;78.60;94486.81;4823626;29;20042;-66
2022/07/10 04:47:19;;;;;;;13.60;9.27;;;;;;;13.76;77.59;94483.50;4823950;29;20076;-64
2022/07/10 04:49:46;;;;;;;11.00;7.50;;;;;;;13.77;77.90;94484.28;4843320;29;20049;-63
2022/07/10 04:52:13;;;;;;;10.90;8.38;;;;;;;13.86;77.92;94483.72;4836201;29;20046;-64
2022/07/10 04:54:39;;;;;;;11.57;8.35;;;;;;;13.92;77.42;94499.38;4837064;29;20342;-64
2022/07/10 04:57:06;;;;;;;12.95;9.00;;;;;;;14.03;77.61;94501.16;4842492;29;20053;-65
2022/07/10 04:59:33;;;;;;;11.20;8.40;;;;;;;14.13;77.36;94487.13;4843200;29;20054;-64
2022/07/10 05:01:59;;;;;;;9.43;6.72;;;;;;;14.25;76.78;94496.00;4842452;29;20079;-64
2022/07/10 05:04:26;;;;;;;8.23;6.90;;;;;;;14.27;76.57;94494.34;4811659;29;20056;-64
2022/07/10 05:06:53;;;;;;;9.13;6.30;;;;;;;14.35;76.21;94498.53;4842578;29;20058;-64
2022/07/10 05:09:20;;;;;;;8.40;6.75;;;;;;;14.53;75.82;94495.41;4835900;29;20411;-64
2022/07/10 05:11:47;;;;;;;11.33;9.00;;;;;;;14.54;75.96;94493.41;4824617;29;20060;-69
2022/07/10 05:14:13;;;;;;;10.70;7.78;;;;;;;14.81;75.02;94506.28;4841410;29;20044;-64
2022/07/10 05:16:40;;;;;;;10.48;7.55;;;;;;;14.02;78.45;94511.38;4842786;29;20140;-64
2022/07/10 05:19:07;;;;;;;10.70;6.97;;;;;;;14.53;76.65;94506.44;4842217;29;20053;-64
2022/07/10 05:21:34;;;;;;;8.60;7.00;;;;;;;14.64;76.59;94506.25;4842882;29;20050;-67
2022/07/10 05:24:01;;;;;;;8.90;7.17;;;;;;;14.95;75.44;94506.75;4842309;29;20397;-64
2022/07/10 05:26:28;;;;;;;10.10;6.95;;;;;;;15.01;74.82;94504.25;4842272;29;20060;-64
2022/07/10 05:28:54;;;;;;;8.23;6.45;;;;;;;15.02;75.31;94513.31;4842144;29;20452;-66
2022/07/10 05:31:21;;;;;;;10.77;7.35;;;;;;;14.21;77.50;94506.34;4842357;29;20050;-68
2022/07/10 05:33:48;;;;;;;10.57;6.97;;;;;;;14.34;77.96;94502.47;4842150;29;20101;-65
2022/07/10 05:36:14;;;;;;;9.53;7.20;;;;;;;14.55;77.12;94512.31;4825431;29;20069;-67
2022/07/10 05:38:41;;;;;;;10.23;6.38;;;;;;;15.04;75.61;94511.69;4842319;29;20045;-66
2022/07/10 05:41:08;;;;;;;9.73;7.03;;;;;;;14.89;75.64;94516.75;4842092;29;20070;-67
2022/07/10 05:43:35;;;;;;;8.75;7.20;;;;;;;14.88;75.94;94519.94;4834572;29;20093;-65
2022/07/10 05:46:02;;;;;;;10.00;7.38;;;;;;;15.23;74.82;94520.34;4836367;29;20046;-67
2022/07/10 05:48:29;;;;;;;8.77;6.77;;;;;;;15.78;72.72;94510.31;4842440;29;20129;-65
2022/07/10 05:50:56;;;;;;;8.98;6.90;;;;;;;16.27;71.01;94515.72;4841620;29;20457;-67
2022/07/10 05:53:43;;;;;;;10.13;6.93;;;;;;;17.69;65.57;94513.88;4827186;29;20453;-65
2022/07/10 05:56:09;;;;;;;9.00;6.60;;;;;;;17.76;64.33;94517.19;4824971;29;20068;-68
2022/07/10 05:58:36;;;;;;;8.73;6.88;;;;;;;17.17;65.22;94518.69;4825755;29;20453;-66
2022/07/10 06:01:04;;;;;;;8.03;6.50;;;;;;;17.25;66.24;94519.25;4838929;29;20050;-65
2022/07/10 06:03:31;;;;;;;8.38;6.50;;;;;;;17.31;65.74;94521.03;4812172;29;20059;-65
2022/07/10 06:05:59;;;;;;;8.40;6.20;;;;;;;17.39;64.52;94513.25;4814473;29;20050;-66
2022/07/10 06:08:26;;;;;;;8.10;6.60;;;;;;;17.34;65.24;94511.81;4833233;29;20054;-66
2022/07/10 06:10:53;;;;;;;9.15;6.55;;;;;;;17.28;65.20;94512.81;4832670;29;20046;-65
2022/07/10 06:13:19;;;;;;;9.10;6.97;;;;;;;16.80;66.12;94518.19;4837963;29;20046;-66
2022/07/10 06:15:47;;;;;;;11.25;8.40;;;;;;;15.22;71.33;94516.78;4841577;29;20060;-68
2022/07/10 06:18:14;;;;;;;10.32;8.23;;;;;;;15.46;71.48;94522.16;4841402;29;20093;-65
2022/07/10 06:20:40;;;;;;;10.50;8.10;;;;;;;15.29;72.67;94519.41;4799510;29;20050;-65
2022/07/10 06:23:07;;;;;;;11.38;8.85;;;;;;;15.90;71.03;94514.38;4840784;29;20080;-65
2022/07/10 06:25:34;;;;;;;12.47;8.80;;;;;;;16.07;70.19;94515.88;4841478;29;20072;-68
2022/07/10 06:28:00;;;;;;;11.90;8.88;;;;;;;16.20;70.04;94509.59;4841172;29;20072;-68
2022/07/10 06:30:27;;;;;;;12.48;9.63;;;;;;;15.74;71.22;94521.47;4841225;29;20057;-66
2022/07/10 06:32:54;;;;;;;14.38;11.15;;;;;;;15.11;74.14;94519.03;4840871;29;20102;-65
2022/07/10 06:35:21;;;;;;;16.27;12.23;;;;;;;14.48;76.85;94522.72;4836310;29;20049;-66
2022/07/10 06:37:47;;;;;;;16.03;11.93;;;;;;;14.39;77.18;94520.56;4828367;29;20050;-65
2022/07/10 06:40:17;;;;;;;16.15;11.55;;;;;;;15.00;75.13;94535.09;4840895;29;20052;-66
2022/07/10 06:42:43;;;;;;;14.85;10.82;;;;;;;15.62;72.04;94524.16;4824750;29;20061;-66
2022/07/10 06:45:10;;;;;;;14.48;10.48;;;;;;;15.91;70.96;94527.00;4840838;29;20058;-67
2022/07/10 06:47:57;;;;;;;16.13;11.38;;;;;;;15.45;73.27;94537.97;4841242;29;20094;-65
2022/07/10 06:50:26;;;;;;;15.07;10.83;;;;;;;15.96;71.38;94532.78;4840376;29;20057;-65
2022/07/10 06:52:53;;;;;;;16.45;11.35;;;;;;;15.96;70.63;94532.00;4840506;29;20057;-65
2022/07/10 06:55:20;;;;;;;14.23;10.68;;;;;;;16.49;68.66;94534.53;4840979;29;20045;-65
2022/07/10 06:57:47;;;;;;;13.43;10.15;;;;;;;16.77;67.99;94538.47;4840665;29;20054;-65
2022/07/10 07:00:15;;;;;;;13.00;9.77;;;;;;;16.96;67.75;94539.53;4827654;29;20064;-68
2022/07/10 07:02:42;;;;;;;12.63;10.07;;;;;;;16.86;67.93;94540.63;4824678;29;20050;-68
2022/07/10 07:05:10;;;;;;;12.85;9.05;;;;;;;17.08;67.20;94540.75;4840668;29;20535;-65
2022/07/10 07:07:37;;;;;;;12.50;9.50;;;;;;;17.20;66.32;94533.66;4840908;29;20064;-64
2022/07/10 07:10:05;;;;;;;12.57;10.00;;;;;;;17.18;65.33;94531.34;4835684;29;20106;-66
2022/07/10 07:12:31;;;;;;;12.00;9.43;;;;;;;17.69;64.05;94538.88;4832985;29;20060;-64
2022/07/10 07:14:58;;;;;;;13.27;9.50;;;;;;;17.19;64.73;94537.69;4840139;29;20506;-64
2022/07/10 07:17:33;;;;;;;13.38;9.80;;;;;;;17.17;64.33;94541.66;4840438;29;20056;-65
2022/07/10 07:25:31;;;;;;;12.70;9.52;;;;;;;18.13;61.56;94542.56;4839032;29;21091;-64
2022/07/10 07:27:58;;;;;;;12.03;9.17;;;;;;;18.12;60.99;94545.78;4839917;29;20056;-64
2022/07/10 07:30:24;;;;;;;13.10;8.82;;;;;;;17.89;61.50;94547.72;4840244;29;20461;-65
2022/07/10 07:32:51;;;;;;;10.23;8.70;;;;;;;17.74;62.12;94555.72;4839784;29;20102;-64
2022/07/10 07:35:18;;;;;;;12.52;8.75;;;;;;;18.18;60.45;94549.53;4836349;29;20415;-67
2022/07/10 07:37:47;;;;;;;12.88;8.80;;;;;;;18.45;59.11;94546.22;4840060;29;20408;-64
2022/07/10 07:40:21;;;;;;;13.50;8.57;;;;;;;20.17;55.40;94538.03;4839927;29;20052;-64
2022/07/10 07:42:48;;;;;;;11.30;8.15;;;;;;;22.58;48.13;94545.13;4840090;29;20053;-65
2022/07/10 07:45:15;;;;;;;265.17;19.75;;;;;;;22.91;46.82;94544.97;4839347;29;20045;-68
2022/07/10 07:47:47;;;;;;;15.85;6.20;;;;;;;24.02;44.71;94543.72;4839981;29;20054;-65
2022/07/10 07:50:16;;;;;;;11.52;6.40;;;;;;;24.99;40.74;94540.03;4823452;29;20045;-65
2022/07/10 07:52:44;;;;;;;8.63;5.93;;;;;;;24.94;41.33;94543.56;4840118;29;20496;-65
2022/07/10 07:55:11;;;;;;;8.43;6.13;;;;;;;24.97;40.36;94537.75;4839576;29;20056;-64
2022/07/10 07:57:38;;;;;;;8.60;5.72;;;;;;;19.08;54.18;94546.34;4839661;29;20401;-64
2022/07/10 08:00:07;;;;;;;8.75;5.88;;;;;;;18.66;55.64;94544.66;4839599;29;20298;-66
2022/07/10 08:02:35;;;;;;;8.80;5.95;;;;;;;23.02;44.55;94535.25;4839875;29;20448;-64
2022/07/10 08:05:02;;;;;;;7.10;4.73;;;;;;;25.97;38.48;94529.91;4839403;29;20060;-65
2022/07/10 08:07:37;;;;;;;8.63;5.63;;;;;;;24.12;39.22;94521.94;4839857;29;20050;-65
2022/07/10 08:10:05;;;;;;;5.72;3.60;;;;;;;27.25;35.15;94528.09;4811150;29;20053;-65
2022/07/10 08:12:32;;;;;;;6.70;4.38;;;;;;;24.24;40.11;94526.41;4832094;29;20049;-68
2022/07/10 08:14:59;;;;;;;6.35;4.00;;;;;;;24.89;38.99;94529.00;4839267;29;20042;-65
2022/07/10 08:17:27;;;;;;;6.43;4.13;;;;;;;23.90;39.80;94516.78;4839688;29;20050;-65
2022/07/10 08:19:54;;;;;;;7.60;4.20;;;;;;;22.68;43.10;94534.63;4839225;29;20060;-65
2022/07/10 08:22:20;;;;;;;9.43;4.63;;;;;;;23.62;41.68;94521.97;4813765;29;20045;-66
2022/07/10 08:24:47;;;;;;;7.78;3.97;;;;;;;24.56;39.27;94520.19;4839813;29;20050;-66
2022/07/10 08:27:14;;;;;;;6.13;4.05;;;;;;;25.85;34.84;94518.53;4823076;29;20076;-68
2022/07/10 08:29:42;;;;;;;6.50;4.10;;;;;;;24.78;38.12;94528.88;4839751;29;20147;-65
2022/07/10 08:32:09;;;;;;;5.72;3.85;;;;;;;23.55;40.19;94528.75;4820179;29;20199;-65
2022/07/10 08:34:37;;;;;;;6.72;4.72;;;;;;;20.58;46.46;94522.69;4813283;29;20407;-65
2022/07/10 08:37:04;;;;;;;6.03;3.95;;;;;;;21.48;44.84;94522.19;4825967;29;20047;-65
2022/07/10 08:39:31;;;;;;;6.30;3.80;;;;;;;24.09;39.98;94514.50;4838027;29;20058;-67
2022/07/10 08:41:58;;;;;;;6.43;3.80;;;;;;;24.94;36.97;94512.69;4810061;29;20046;-67
2022/07/10 08:44:26;;;;;;;5.20;3.45;;;;;;;24.06;39.00;94509.88;4839493;29;20042;-66
2022/07/10 08:46:53;;;;;;;6.28;3.80;;;;;;;20.87;44.23;94501.91;4809825;29;20058;-65
2022/07/10 08:49:23;;;;;;;6.03;3.88;;;;;;;21.89;42.77;94497.47;4832322;29;20049;-65
2022/07/10 08:51:58;;;;;;;5.47;3.63;;;;;;;22.72;41.81;94504.44;4821488;29;20062;-66
2022/07/10 08:54:27;;;;;;;5.77;3.50;;;;;;;24.10;39.04;94491.56;4813690;29;20831;-65
2022/07/10 08:56:57;;;;;;;5.70;3.75;;;;;;;23.99;38.51;94491.44;4838914;29;20041;-65
2022/07/10 08:59:24;;;;;;;5.97;3.80;;;;;;;24.39;38.39;94492.69;4839191;29;20065;-65
2022/07/10 09:01:57;;;;;;;5.85;3.58;;;;;;;24.21;37.86;94487.38;4838809;29;20058;-69
2022/07/10 09:04:26;;;;;;;6.75;3.30;;;;;;;26.20;34.17;94482.94;4839192;29;20460;-67
2022/07/10 09:06:54;;;;;;;4.50;3.17;;;;;;;26.24;34.36;94484.25;4828001;29;20054;-66
2022/07/10 09:09:21;;;;;;;6.90;3.45;;;;;;;25.59;34.26;94490.50;4837689;29;20046;-66
2022/07/10 09:11:48;;;;;;;5.22;3.50;;;;;;;25.27;34.74;94492.56;4839243;29;20136;-67
2022/07/10 09:14:16;;;;;;;4.63;3.30;;;;;;;26.01;33.98;94491.06;4838889;29;20106;-66
2022/07/10 09:16:59;;;;;;;5.95;3.90;;;;;;;24.95;36.34;94489.75;4838850;29;20050;-66
2022/07/10 09:19:28;;;;;;;9.67;3.60;;;;;;;23.20;40.19;94492.28;4839204;29;20121;-68
2022/07/10 09:22:03;;;;;;;6.60;3.90;;;;;;;20.29;46.16;94492.50;4838629;29;20042;-66
2022/07/10 09:24:40;;;;;;;6.50;3.90;;;;;;;21.26;43.87;94497.28;4838993;29;20050;-65
2022/07/10 09:27:08;;;;;;;6.70;3.78;;;;;;;23.22;39.29;94489.78;4825829;29;20060;-66
2022/07/10 09:29:47;;;;;;;6.40;3.70;;;;;;;23.55;38.86;94489.53;4839336;29;20140;-65
2022/07/10 09:32:14;;;;;;;8.00;3.47;;;;;;;23.84;38.84;94485.88;4818313;29;20043;-70
2022/07/10 09:34:44;;;;;;;5.97;3.70;;;;;;;24.81;36.41;94487.78;4804023;29;20043;-66
2022/07/10 09:37:17;;;;;;;5.60;3.75;;;;;;;21.37;44.50;94491.19;4825571;29;20061;-68
2022/07/10 09:39:56;;;;;;;5.75;3.50;;;;;;;22.62;40.64;94480.59;4842334;29;20046;-66
2022/07/10 09:42:39;;;;;;;5.13;3.55;;;;;;;22.37;42.11;94487.50;4830871;29;22014;-66
2022/07/10 09:45:13;;;;;;;4.97;3.40;;;;;;;23.61;38.79;94484.00;4841622;29;20072;-69
2022/07/10 09:48:03;;;;;;;6.40;3.50;;;;;;;25.24;35.92;94477.50;4842268;29;20046;-67
2022/07/10 09:50:33;;;;;;;5.00;2.97;;;;;;;28.28;32.44;94474.63;4823916;29;20695;-66
2022/07/10 09:53:05;;;;;;;4.90;3.20;;;;;;;28.25;30.84;94478.50;4832402;29;20058;-66
2022/07/10 09:55:37;;;;;;;5.82;2.90;;;;;;;28.32;29.87;94468.72;4841801;29;20411;-66
2022/07/10 09:58:08;;;;;;;4.23;2.80;;;;;;;27.45;31.71;94479.16;4841583;29;20042;-69
2022/07/10 10:00:37;;;;;;;5.07;3.08;;;;;;;26.89;32.40;94488.31;4825586;29;20113;-67
2022/07/10 10:03:06;;;;;;;6.00;3.53;;;;;;;25.16;34.86;94487.63;4841299;29;20053;-66
2022/07/10 10:05:43;;;;;;;4.93;2.90;;;;;;;26.63;33.20;94471.63;4839950;29;20508;-66
2022/07/10 10:08:14;;;;;;;5.68;3.10;;;;;;;25.75;34.49;94474.25;4831820;29;20427;-66
2022/07/10 10:10:45;;;;;;;5.10;2.97;;;;;;;27.66;31.77;94465.53;4841932;29;20064;-66
2022/07/10 10:13:16;;;;;;;4.82;3.00;;;;;;;28.53;30.64;94462.72;4841413;29;20050;-69
2022/07/10 10:15:43;;;;;;;6.53;3.25;;;;;;;26.82;32.79;94460.66;4841761;29;20053;-70
2022/07/10 10:18:11;;;;;;;5.13;2.80;;;;;;;25.95;34.12;94473.38;4841109;29;21274;-67
2022/07/10 10:20:43;;;;;;;4.22;2.88;;;;;;;25.18;35.46;94468.22;4825135;29;20141;-69
2022/07/10 10:23:12;;;;;;;4.60;2.80;;;;;;;28.42;30.72;94469.19;4841149;29;20058;-66
2022/07/10 10:25:40;;;;;;;4.90;2.80;;;;;;;28.11;30.32;94467.50;4818159;29;20076;-66
2022/07/10 10:28:09;;;;;;;5.45;3.00;;;;;;;29.76;27.60;94463.16;4835227;29;20061;-66
2022/07/10 10:30:44;;;;;;;5.07;3.15;;;;;;;24.98;36.01;94471.88;4841630;29;20050;-69
2022/07/10 10:33:37;;;;;;;5.25;3.38;;;;;;;23.60;39.01;94462.84;4807914;29;20065;-69
2022/07/10 10:36:12;;;;;;;5.47;3.40;;;;;;;22.52;39.93;94465.94;4818869;29;20097;-66
2022/07/10 10:38:45;;;;;;;7.43;3.33;;;;;;;22.99;39.70;94467.00;4836644;29;20102;-66
2022/07/10 10:41:42;;;;;;;8.18;3.33;;;;;;;22.44;41.03;94462.75;4827281;29;20050;-69
2022/07/10 10:44:13;;;;;;;6.47;3.40;;;;;;;23.19;39.19;94454.34;4831426;29;20052;-66
2022/07/10 10:47:09;;;;;;;6.85;3.70;;;;;;;22.32;41.83;94455.38;4840919;29;20133;-68
2022/07/10 10:49:50;;;;;;;6.30;3.47;;;;;;;23.21;39.88;94451.84;4827928;29;20126;-67
2022/07/10 10:52:18;;;;;;;6.38;3.40;;;;;;;24.71;37.19;94450.72;4818144;29;21558;-66
2022/07/10 10:54:57;;;;;;;8.00;3.20;;;;;;;22.89;41.02;94454.34;4841063;29;20443;-66
2022/07/10 10:57:37;;;;;;;5.75;3.17;;;;;;;22.91;41.58;94457.44;4818010;29;21623;-65
2022/07/10 11:00:07;;;;;;;7.53;3.45;;;;;;;22.87;41.25;94448.47;4840479;29;20046;-67
2022/07/10 11:02:39;;;;;;;5.67;3.40;;;;;;;22.20;42.28;94457.16;4840998;29;20056;-66
2022/07/10 11:05:18;;;;;;;5.75;3.60;;;;;;;22.51;42.00;94444.78;4839656;29;20496;-66
2022/07/10 11:08:02;;;;;;;5.55;3.35;;;;;;;22.60;40.92;94444.72;4830511;29;20046;-65
2022/07/10 11:10:40;;;;;;;5.95;3.42;;;;;;;22.38;42.04;94445.09;4839559;29;20064;-66
2022/07/10 11:13:18;;;;;;;6.72;3.33;;;;;;;22.21;42.08;94443.94;4840215;29;20050;-66
2022/07/10 11:15:47;;;;;;;5.63;3.23;;;;;;;21.35;43.71;94451.81;4840571;29;20081;-67
2022/07/10 11:18:21;;;;;;;5.28;3.22;;;;;;;22.02;42.00;94448.94;4840223;29;20050;-66
2022/07/10 11:20:50;;;;;;;5.80;3.20;;;;;;;21.46;43.43;94446.50;4840487;29;20038;-67
2022/07/10 11:23:22;;;;;;;5.55;3.03;;;;;;;22.14;42.02;94434.69;4839809;29;20343;-67
2022/07/10 11:26:07;;;;;;;5.93;3.10;;;;;;;20.91;44.38;94435.56;4840098;29;20050;-65
2022/07/10 11:28:52;;;;;;;6.13;3.57;;;;;;;21.52;43.44;94419.47;4839807;29;20090;-66
2022/07/10 11:31:20;;;;;;;6.03;3.17;;;;;;;21.26;44.11;94432.31;4811606;29;20243;-66
2022/07/10 11:33:51;;;;;;;5.78;3.50;;;;;;;21.32;43.09;94445.13;4836306;29;20393;-66
2022/07/10 11:36:21;;;;;;;6.18;3.20;;;;;;;21.54;43.42;94438.53;4837313;29;20651;-68
2022/07/10 11:38:58;;;;;;;5.95;3.00;;;;;;;22.25;41.87;94430.59;4832700;29;20061;-68
2022/07/10 11:41:25;;;;;;;6.40;3.23;;;;;;;21.12;43.88;94430.97;4825719;29;20113;-65
2022/07/10 11:43:53;;;;;;;5.05;3.35;;;;;;;21.54;43.34;94430.94;4839688;29;20050;-65